sensor_id;sensor_type;location;lat;lon;timestamp;temperature;humidity
39277;DHT22;24981;48.086;-1.686;2022-07-29T00:01:01;20.90;99.90
39277;DHT22;24981;48.086;-1.686;2022-07-29T00:03:28;20.90;99.90
39277;DHT22;24981;48.086;-1.686;2022-07-29T00:05:57;20.90;99.90
39277;DHT22;24981;48.086;-1.686;2022-07-29T00:08:24;20.90;99.90
39277;DHT22;24981;48.086;-1.686;2022-07-29T00:10:51;20.80;99.90
39277;DHT22;24981;48.086;-1.686;2022-07-29T00:13:19;20.80;99.90
39277;DHT22;24981;48.086;-1.686;2022-07-29T00:15:46;20.90;99.90
39277;DHT22;24981;48.086;-1.686;2022-07-29T00:18:13;20.80;99.90
39277;DHT22;24981;48.086;-1.686;2022-07-29T00:20:40;20.80;99.90
39277;DHT22;24981;48.086;-1.686;2022-07-29T00:23:09;20.80;99.90
39277;DHT22;24981;48.086;-1.686;2022-07-29T00:25:36;20.70;99.90
39277;DHT22;24981;48.086;-1.686;2022-07-29T00:28:04;20.70;99.90
39277;DHT22;24981;48.086;-1.686;2022-07-29T00:30:31;20.80;99.90
39277;DHT22;24981;48.086;-1.686;2022-07-29T00:32:58;20.70;99.90
39277;DHT22;24981;48.086;-1.686;2022-07-29T00:35:26;20.70;99.90
39277;DHT22;24981;48.086;-1.686;2022-07-29T00:38:07;20.70;99.90
39277;DHT22;24981;48.086;-1.686;2022-07-29T00:40:35;20.60;99.90
39277;DHT22;24981;48.086;-1.686;2022-07-29T00:43:02;20.70;99.90
39277;DHT22;24981;48.086;-1.686;2022-07-29T00:45:30;20.70;99.90
39277;DHT22;24981;48.086;-1.686;2022-07-29T00:47:57;20.70;99.90
39277;DHT22;24981;48.086;-1.686;2022-07-29T00:50:25;20.70;99.90
39277;DHT22;24981;48.086;-1.686;2022-07-29T00:52:53;20.70;99.90
39277;DHT22;24981;48.086;-1.686;2022-07-29T00:55:21;20.70;99.90
39277;DHT22;24981;48.086;-1.686;2022-07-29T00:57:50;20.70;99.90
39277;DHT22;24981;48.086;-1.686;2022-07-29T01:00:20;20.80;99.90
39277;DHT22;24981;48.086;-1.686;2022-07-29T01:02:48;20.70;99.90
39277;DHT22;24981;48.086;-1.686;2022-07-29T01:05:17;20.80;99.90
39277;DHT22;24981;48.086;-1.686;2022-07-29T01:07:46;20.80;99.90
39277;DHT22;24981;48.086;-1.686;2022-07-29T01:10:15;20.80;99.90
39277;DHT22;24981;48.086;-1.686;2022-07-29T01:12:44;20.90;99.90
39277;DHT22;24981;48.086;-1.686;2022-07-29T01:15:15;20.80;99.90
39277;DHT22;24981;48.086;-1.686;2022-07-29T01:17:45;20.80;99.90
39277;DHT22;24981;48.086;-1.686;2022-07-29T01:20:20;20.70;99.90
39277;DHT22;24981;48.086;-1.686;2022-07-29T01:25:54;20.70;99.90
39277;DHT22;24981;48.086;-1.686;2022-07-29T01:28:43;20.70;99.90
39277;DHT22;24981;48.086;-1.686;2022-07-29T01:31:17;20.70;99.90
39277;DHT22;24981;48.086;-1.686;2022-07-29T01:33:50;20.70;99.90
39277;DHT22;24981;48.086;-1.686;2022-07-29T01:36:27;20.60;99.90
39277;DHT22;24981;48.086;-1.686;2022-07-29T01:39:06;20.70;99.90
39277;DHT22;24981;48.086;-1.686;2022-07-29T01:41:37;20.70;99.90
39277;DHT22;24981;48.086;-1.686;2022-07-29T01:44:13;20.70;99.90
39277;DHT22;24981;48.086;-1.686;2022-07-29T01:46:47;20.60;99.90
39277;DHT22;24981;48.086;-1.686;2022-07-29T01:49:21;20.70;99.90
39277;DHT22;24981;48.086;-1.686;2022-07-29T01:51:51;20.70;99.90
39277;DHT22;24981;48.086;-1.686;2022-07-29T01:54:24;20.70;99.90
39277;DHT22;24981;48.086;-1.686;2022-07-29T01:56:54;20.70;99.90
39277;DHT22;24981;48.086;-1.686;2022-07-29T01:59:25;20.70;99.90
39277;DHT22;24981;48.086;-1.686;2022-07-29T02:01:54;20.70;99.90
39277;DHT22;24981;48.086;-1.686;2022-07-29T02:04:23;20.70;99.90
39277;DHT22;24981;48.086;-1.686;2022-07-29T02:06:53;20.60;99.90
39277;DHT22;24981;48.086;-1.686;2022-07-29T02:09:22;20.70;99.90
39277;DHT22;24981;48.086;-1.686;2022-07-29T02:11:53;20.70;99.90
39277;DHT22;24981;48.086;-1.686;2022-07-29T02:14:24;20.70;99.90
39277;DHT22;24981;48.086;-1.686;2022-07-29T02:16:54;20.70;99.90
39277;DHT22;24981;48.086;-1.686;2022-07-29T02:19:25;20.70;99.90
39277;DHT22;24981;48.086;-1.686;2022-07-29T02:21:54;20.70;99.90
39277;DHT22;24981;48.086;-1.686;2022-07-29T02:24:24;20.70;99.90
39277;DHT22;24981;48.086;-1.686;2022-07-29T02:26:55;20.70;99.90
39277;DHT22;24981;48.086;-1.686;2022-07-29T02:29:25;20.70;99.90
39277;DHT22;24981;48.086;-1.686;2022-07-29T02:31:54;20.70;99.90
39277;DHT22;24981;48.086;-1.686;2022-07-29T02:34:23;20.70;99.90
39277;DHT22;24981;48.086;-1.686;2022-07-29T02:36:52;20.70;99.90
39277;DHT22;24981;48.086;-1.686;2022-07-29T02:39:21;20.70;99.90
39277;DHT22;24981;48.086;-1.686;2022-07-29T02:41:52;20.70;99.90
39277;DHT22;24981;48.086;-1.686;2022-07-29T02:44:25;20.60;99.90
39277;DHT22;24981;48.086;-1.686;2022-07-29T02:46:58;20.70;99.90
39277;DHT22;24981;48.086;-1.686;2022-07-29T02:49:34;20.50;99.90
39277;DHT22;24981;48.086;-1.686;2022-07-29T02:52:06;20.50;99.90
39277;DHT22;24981;48.086;-1.686;2022-07-29T02:54:40;20.60;99.90
39277;DHT22;24981;48.086;-1.686;2022-07-29T02:57:14;20.60;99.90
39277;DHT22;24981;48.086;-1.686;2022-07-29T02:59:45;20.50;99.90
39277;DHT22;24981;48.086;-1.686;2022-07-29T03:02:15;20.50;99.90
39277;DHT22;24981;48.086;-1.686;2022-07-29T03:04:44;20.50;99.90
39277;DHT22;24981;48.086;-1.686;2022-07-29T03:07:18;20.50;99.90
39277;DHT22;24981;48.086;-1.686;2022-07-29T03:09:47;20.40;99.90
39277;DHT22;24981;48.086;-1.686;2022-07-29T03:12:17;20.40;99.90
39277;DHT22;24981;48.086;-1.686;2022-07-29T03:14:46;20.30;99.90
39277;DHT22;24981;48.086;-1.686;2022-07-29T03:17:14;20.30;99.90
39277;DHT22;24981;48.086;-1.686;2022-07-29T03:19:42;20.30;99.90
39277;DHT22;24981;48.086;-1.686;2022-07-29T03:22:10;20.30;99.90
39277;DHT22;24981;48.086;-1.686;2022-07-29T03:24:37;20.20;99.90
39277;DHT22;24981;48.086;-1.686;2022-07-29T03:27:04;20.20;99.90
39277;DHT22;24981;48.086;-1.686;2022-07-29T03:29:32;20.20;99.90
39277;DHT22;24981;48.086;-1.686;2022-07-29T03:32:02;20.20;99.90
39277;DHT22;24981;48.086;-1.686;2022-07-29T03:34:30;20.10;99.90
39277;DHT22;24981;48.086;-1.686;2022-07-29T03:36:57;20.20;99.90
39277;DHT22;24981;48.086;-1.686;2022-07-29T03:39:29;20.20;99.90
39277;DHT22;24981;48.086;-1.686;2022-07-29T03:42:00;20.20;99.90
39277;DHT22;24981;48.086;-1.686;2022-07-29T03:44:28;20.20;99.90
39277;DHT22;24981;48.086;-1.686;2022-07-29T03:46:57;20.10;99.90
39277;DHT22;24981;48.086;-1.686;2022-07-29T03:49:30;20.10;99.90
39277;DHT22;24981;48.086;-1.686;2022-07-29T03:51:57;20.10;99.90
39277;DHT22;24981;48.086;-1.686;2022-07-29T03:54:26;20.00;99.90
39277;DHT22;24981;48.086;-1.686;2022-07-29T03:56:54;20.10;99.90
39277;DHT22;24981;48.086;-1.686;2022-07-29T03:59:24;20.10;99.90
39277;DHT22;24981;48.086;-1.686;2022-07-29T04:01:52;20.00;99.90
39277;DHT22;24981;48.086;-1.686;2022-07-29T04:04:19;20.10;99.90
39277;DHT22;24981;48.086;-1.686;2022-07-29T04:06:48;20.00;99.90
39277;DHT22;24981;48.086;-1.686;2022-07-29T04:09:15;20.10;99.90
39277;DHT22;24981;48.086;-1.686;2022-07-29T04:11:43;20.10;99.90
39277;DHT22;24981;48.086;-1.686;2022-07-29T04:14:10;20.00;99.90
39277;DHT22;24981;48.086;-1.686;2022-07-29T04:16:38;20.00;99.90
39277;DHT22;24981;48.086;-1.686;2022-07-29T04:19:05;19.90;99.90
39277;DHT22;24981;48.086;-1.686;2022-07-29T04:21:37;19.90;99.90
39277;DHT22;24981;48.086;-1.686;2022-07-29T04:24:06;19.90;99.90
39277;DHT22;24981;48.086;-1.686;2022-07-29T04:26:34;19.90;99.90
39277;DHT22;24981;48.086;-1.686;2022-07-29T04:29:02;19.80;99.90
39277;DHT22;24981;48.086;-1.686;2022-07-29T04:31:29;19.80;99.90
39277;DHT22;24981;48.086;-1.686;2022-07-29T04:33:56;19.90;99.90
39277;DHT22;24981;48.086;-1.686;2022-07-29T04:36:23;19.90;99.90
39277;DHT22;24981;48.086;-1.686;2022-07-29T04:38:51;19.90;99.90
39277;DHT22;24981;48.086;-1.686;2022-07-29T04:41:19;19.90;99.90
39277;DHT22;24981;48.086;-1.686;2022-07-29T04:43:47;19.90;99.90
39277;DHT22;24981;48.086;-1.686;2022-07-29T04:46:14;19.90;99.90
39277;DHT22;24981;48.086;-1.686;2022-07-29T04:48:41;19.90;99.90
39277;DHT22;24981;48.086;-1.686;2022-07-29T04:51:08;19.90;99.90
39277;DHT22;24981;48.086;-1.686;2022-07-29T04:53:36;19.80;99.90
39277;DHT22;24981;48.086;-1.686;2022-07-29T04:56:03;19.80;99.90
39277;DHT22;24981;48.086;-1.686;2022-07-29T04:58:34;19.90;99.90
39277;DHT22;24981;48.086;-1.686;2022-07-29T05:01:01;19.90;99.90
39277;DHT22;24981;48.086;-1.686;2022-07-29T05:03:28;19.90;99.90
39277;DHT22;24981;48.086;-1.686;2022-07-29T05:05:56;19.90;99.90
39277;DHT22;24981;48.086;-1.686;2022-07-29T05:08:23;20.00;99.90
39277;DHT22;24981;48.086;-1.686;2022-07-29T05:10:50;20.00;99.90
39277;DHT22;24981;48.086;-1.686;2022-07-29T05:13:17;20.00;99.90
39277;DHT22;24981;48.086;-1.686;2022-07-29T05:15:46;20.00;99.90
39277;DHT22;24981;48.086;-1.686;2022-07-29T05:18:13;20.10;99.90
39277;DHT22;24981;48.086;-1.686;2022-07-29T05:20:41;20.10;99.90
39277;DHT22;24981;48.086;-1.686;2022-07-29T05:23:08;20.10;99.90
39277;DHT22;24981;48.086;-1.686;2022-07-29T05:25:38;20.10;99.90
39277;DHT22;24981;48.086;-1.686;2022-07-29T05:28:05;20.20;99.90
39277;DHT22;24981;48.086;-1.686;2022-07-29T05:30:33;20.20;99.90
39277;DHT22;24981;48.086;-1.686;2022-07-29T05:33:01;20.20;99.90
39277;DHT22;24981;48.086;-1.686;2022-07-29T05:35:28;20.20;99.90
39277;DHT22;24981;48.086;-1.686;2022-07-29T05:37:56;20.30;99.90
39277;DHT22;24981;48.086;-1.686;2022-07-29T05:40:23;20.30;99.90
39277;DHT22;24981;48.086;-1.686;2022-07-29T05:42:50;20.30;99.90
39277;DHT22;24981;48.086;-1.686;2022-07-29T05:45:18;20.30;99.90
39277;DHT22;24981;48.086;-1.686;2022-07-29T05:47:45;20.40;99.90
39277;DHT22;24981;48.086;-1.686;2022-07-29T05:50:14;20.40;99.90
39277;DHT22;24981;48.086;-1.686;2022-07-29T05:52:41;20.40;99.90
39277;DHT22;24981;48.086;-1.686;2022-07-29T05:55:09;20.50;99.90
39277;DHT22;24981;48.086;-1.686;2022-07-29T05:57:37;20.50;99.90
39277;DHT22;24981;48.086;-1.686;2022-07-29T06:00:05;20.50;99.90
39277;DHT22;24981;48.086;-1.686;2022-07-29T06:02:32;20.60;99.90
39277;DHT22;24981;48.086;-1.686;2022-07-29T06:05:00;20.50;99.90
39277;DHT22;24981;48.086;-1.686;2022-07-29T06:07:28;20.70;99.90
39277;DHT22;24981;48.086;-1.686;2022-07-29T06:09:56;20.70;99.90
39277;DHT22;24981;48.086;-1.686;2022-07-29T06:12:23;20.70;99.90
39277;DHT22;24981;48.086;-1.686;2022-07-29T06:14:51;20.80;99.90
39277;DHT22;24981;48.086;-1.686;2022-07-29T06:17:18;20.80;99.90
39277;DHT22;24981;48.086;-1.686;2022-07-29T06:19:45;20.80;99.90
39277;DHT22;24981;48.086;-1.686;2022-07-29T06:22:15;20.90;99.90
39277;DHT22;24981;48.086;-1.686;2022-07-29T06:24:44;20.90;99.90
39277;DHT22;24981;48.086;-1.686;2022-07-29T06:27:11;21.00;99.90
39277;DHT22;24981;48.086;-1.686;2022-07-29T06:29:38;21.00;99.90
39277;DHT22;24981;48.086;-1.686;2022-07-29T06:32:06;21.00;99.90
39277;DHT22;24981;48.086;-1.686;2022-07-29T06:34:35;21.10;99.90
39277;DHT22;24981;48.086;-1.686;2022-07-29T06:37:06;21.10;99.90
39277;DHT22;24981;48.086;-1.686;2022-07-29T06:39:34;21.30;99.90
39277;DHT22;24981;48.086;-1.686;2022-07-29T06:42:03;21.30;99.90
39277;DHT22;24981;48.086;-1.686;2022-07-29T06:44:31;21.40;99.90
39277;DHT22;24981;48.086;-1.686;2022-07-29T06:46:59;21.50;99.90
39277;DHT22;24981;48.086;-1.686;2022-07-29T06:49:27;21.60;99.90
39277;DHT22;24981;48.086;-1.686;2022-07-29T06:51:55;21.60;99.90
39277;DHT22;24981;48.086;-1.686;2022-07-29T06:54:22;21.70;99.90
39277;DHT22;24981;48.086;-1.686;2022-07-29T06:56:49;21.70;99.90
39277;DHT22;24981;48.086;-1.686;2022-07-29T06:59:18;21.80;99.90
39277;DHT22;24981;48.086;-1.686;2022-07-29T07:01:45;21.90;99.90
39277;DHT22;24981;48.086;-1.686;2022-07-29T07:04:13;22.00;99.90
39277;DHT22;24981;48.086;-1.686;2022-07-29T07:06:40;22.10;99.90
39277;DHT22;24981;48.086;-1.686;2022-07-29T07:09:07;22.20;99.90
39277;DHT22;24981;48.086;-1.686;2022-07-29T07:11:34;22.30;99.90
39277;DHT22;24981;48.086;-1.686;2022-07-29T07:14:02;22.30;99.90
39277;DHT22;24981;48.086;-1.686;2022-07-29T07:16:31;22.40;99.90
39277;DHT22;24981;48.086;-1.686;2022-07-29T07:18:58;22.50;99.90
39277;DHT22;24981;48.086;-1.686;2022-07-29T07:21:25;22.80;99.90
39277;DHT22;24981;48.086;-1.686;2022-07-29T07:23:53;23.00;99.90
39277;DHT22;24981;48.086;-1.686;2022-07-29T07:26:20;23.10;99.90
39277;DHT22;24981;48.086;-1.686;2022-07-29T07:28:48;23.20;99.90
39277;DHT22;24981;48.086;-1.686;2022-07-29T07:31:16;23.10;99.90
39277;DHT22;24981;48.086;-1.686;2022-07-29T07:33:44;23.20;99.90
39277;DHT22;24981;48.086;-1.686;2022-07-29T07:36:11;23.20;99.70
39277;DHT22;24981;48.086;-1.686;2022-07-29T07:38:39;23.20;99.50
39277;DHT22;24981;48.086;-1.686;2022-07-29T07:41:06;23.20;99.50
39277;DHT22;24981;48.086;-1.686;2022-07-29T07:43:34;23.30;99.50
39277;DHT22;24981;48.086;-1.686;2022-07-29T07:46:01;23.30;99.10
39277;DHT22;24981;48.086;-1.686;2022-07-29T07:48:28;23.40;99.20
39277;DHT22;24981;48.086;-1.686;2022-07-29T07:50:57;23.40;99.10
39277;DHT22;24981;48.086;-1.686;2022-07-29T07:53:24;23.30;99.00
39277;DHT22;24981;48.086;-1.686;2022-07-29T07:55:51;23.40;99.10
39277;DHT22;24981;48.086;-1.686;2022-07-29T07:58:19;23.30;98.70
39277;DHT22;24981;48.086;-1.686;2022-07-29T08:00:46;23.40;98.60
39277;DHT22;24981;48.086;-1.686;2022-07-29T08:03:14;23.20;98.40
39277;DHT22;24981;48.086;-1.686;2022-07-29T08:05:41;23.20;98.30
39277;DHT22;24981;48.086;-1.686;2022-07-29T08:08:09;23.20;98.30
39277;DHT22;24981;48.086;-1.686;2022-07-29T08:10:37;23.30;98.70
39277;DHT22;24981;48.086;-1.686;2022-07-29T08:13:19;23.30;98.80
39277;DHT22;24981;48.086;-1.686;2022-07-29T08:15:46;23.40;98.30
39277;DHT22;24981;48.086;-1.686;2022-07-29T08:18:22;23.40;98.10
39277;DHT22;24981;48.086;-1.686;2022-07-29T08:20:50;23.40;98.40
39277;DHT22;24981;48.086;-1.686;2022-07-29T08:23:18;23.30;98.10
39277;DHT22;24981;48.086;-1.686;2022-07-29T08:25:46;23.30;98.30
39277;DHT22;24981;48.086;-1.686;2022-07-29T08:28:13;23.30;98.20
39277;DHT22;24981;48.086;-1.686;2022-07-29T08:30:40;23.40;98.30
39277;DHT22;24981;48.086;-1.686;2022-07-29T08:33:08;23.50;98.10
39277;DHT22;24981;48.086;-1.686;2022-07-29T08:35:35;23.50;97.90
39277;DHT22;24981;48.086;-1.686;2022-07-29T08:38:03;23.70;97.80
39277;DHT22;24981;48.086;-1.686;2022-07-29T08:40:31;23.80;97.80
39277;DHT22;24981;48.086;-1.686;2022-07-29T08:43:03;24.00;97.10
39277;DHT22;24981;48.086;-1.686;2022-07-29T08:45:39;24.30;96.70
39277;DHT22;24981;48.086;-1.686;2022-07-29T08:48:08;24.50;96.60
39277;DHT22;24981;48.086;-1.686;2022-07-29T08:50:35;24.60;96.20
39277;DHT22;24981;48.086;-1.686;2022-07-29T08:53:04;24.60;96.00
39277;DHT22;24981;48.086;-1.686;2022-07-29T08:55:34;24.80;96.10
39277;DHT22;24981;48.086;-1.686;2022-07-29T08:58:02;24.80;95.60
39277;DHT22;24981;48.086;-1.686;2022-07-29T09:00:29;24.90;95.60
39277;DHT22;24981;48.086;-1.686;2022-07-29T09:02:57;24.80;95.50
39277;DHT22;24981;48.086;-1.686;2022-07-29T09:05:26;24.90;95.40
39277;DHT22;24981;48.086;-1.686;2022-07-29T09:07:55;24.90;95.30
39277;DHT22;24981;48.086;-1.686;2022-07-29T09:10:22;24.90;95.00
39277;DHT22;24981;48.086;-1.686;2022-07-29T09:12:51;25.10;95.30
39277;DHT22;24981;48.086;-1.686;2022-07-29T09:15:19;25.10;94.70
39277;DHT22;24981;48.086;-1.686;2022-07-29T09:17:47;25.00;94.80
39277;DHT22;24981;48.086;-1.686;2022-07-29T09:20:16;24.80;95.00
39277;DHT22;24981;48.086;-1.686;2022-07-29T09:22:44;25.00;95.00
39277;DHT22;24981;48.086;-1.686;2022-07-29T09:25:15;25.10;95.00
39277;DHT22;24981;48.086;-1.686;2022-07-29T09:28:07;25.10;94.70
39277;DHT22;24981;48.086;-1.686;2022-07-29T09:30:35;25.30;94.30
39277;DHT22;24981;48.086;-1.686;2022-07-29T09:33:03;25.40;94.10
39277;DHT22;24981;48.086;-1.686;2022-07-29T09:35:31;25.60;94.10
39277;DHT22;24981;48.086;-1.686;2022-07-29T09:38:10;25.80;93.60
39277;DHT22;24981;48.086;-1.686;2022-07-29T09:40:38;26.00;93.30
39277;DHT22;24981;48.086;-1.686;2022-07-29T09:43:22;25.70;93.40
39277;DHT22;24981;48.086;-1.686;2022-07-29T09:45:50;25.80;93.70
39277;DHT22;24981;48.086;-1.686;2022-07-29T09:48:21;25.70;93.00
39277;DHT22;24981;48.086;-1.686;2022-07-29T09:50:49;25.90;93.40
39277;DHT22;24981;48.086;-1.686;2022-07-29T09:53:30;26.30;93.10
39277;DHT22;24981;48.086;-1.686;2022-07-29T09:55:58;26.50;92.10
39277;DHT22;24981;48.086;-1.686;2022-07-29T09:58:27;26.40;92.20
39277;DHT22;24981;48.086;-1.686;2022-07-29T10:00:55;26.20;92.30
39277;DHT22;24981;48.086;-1.686;2022-07-29T10:03:23;26.40;92.20
39277;DHT22;24981;48.086;-1.686;2022-07-29T10:06:06;26.40;92.10
39277;DHT22;24981;48.086;-1.686;2022-07-29T10:08:34;26.20;92.20
39277;DHT22;24981;48.086;-1.686;2022-07-29T10:11:17;26.60;92.20
39277;DHT22;24981;48.086;-1.686;2022-07-29T10:13:47;26.80;91.60
39277;DHT22;24981;48.086;-1.686;2022-07-29T10:16:16;27.10;91.70
39277;DHT22;24981;48.086;-1.686;2022-07-29T10:18:44;27.30;91.10
39277;DHT22;24981;48.086;-1.686;2022-07-29T10:21:12;27.40;90.80
39277;DHT22;24981;48.086;-1.686;2022-07-29T10:23:41;27.60;90.40
39277;DHT22;24981;48.086;-1.686;2022-07-29T10:26:10;27.70;90.20
39277;DHT22;24981;48.086;-1.686;2022-07-29T10:28:37;27.80;89.20
39277;DHT22;24981;48.086;-1.686;2022-07-29T10:31:08;27.70;89.50
39277;DHT22;24981;48.086;-1.686;2022-07-29T10:33:51;27.20;90.30
39277;DHT22;24981;48.086;-1.686;2022-07-29T10:36:32;27.30;91.10
39277;DHT22;24981;48.086;-1.686;2022-07-29T10:39:17;27.40;90.20
39277;DHT22;24981;48.086;-1.686;2022-07-29T10:41:59;27.60;89.00
39277;DHT22;24981;48.086;-1.686;2022-07-29T10:44:29;27.90;87.80
39277;DHT22;24981;48.086;-1.686;2022-07-29T10:46:58;28.00;87.10
39277;DHT22;24981;48.086;-1.686;2022-07-29T10:49:26;28.10;86.60
39277;DHT22;24981;48.086;-1.686;2022-07-29T10:52:00;28.10;86.00
39277;DHT22;24981;48.086;-1.686;2022-07-29T10:54:47;28.10;85.90
39277;DHT22;24981;48.086;-1.686;2022-07-29T10:57:19;28.20;85.00
39277;DHT22;24981;48.086;-1.686;2022-07-29T10:59:47;28.20;84.80
39277;DHT22;24981;48.086;-1.686;2022-07-29T11:05:16;28.30;83.10
39277;DHT22;24981;48.086;-1.686;2022-07-29T11:10:43;28.70;83.10
39277;DHT22;24981;48.086;-1.686;2022-07-29T11:13:11;28.80;83.30
39277;DHT22;24981;48.086;-1.686;2022-07-29T11:15:53;28.70;83.80
39277;DHT22;24981;48.086;-1.686;2022-07-29T11:18:20;28.40;83.90
39277;DHT22;24981;48.086;-1.686;2022-07-29T11:20:50;28.60;83.40
39277;DHT22;24981;48.086;-1.686;2022-07-29T11:23:23;28.80;82.70
39277;DHT22;24981;48.086;-1.686;2022-07-29T11:29:00;28.50;84.00
39277;DHT22;24981;48.086;-1.686;2022-07-29T11:31:35;28.70;82.20
39277;DHT22;24981;48.086;-1.686;2022-07-29T11:34:19;29.10;79.40
39277;DHT22;24981;48.086;-1.686;2022-07-29T11:39:47;29.00;79.60
39277;DHT22;24981;48.086;-1.686;2022-07-29T11:45:16;28.90;78.70
39277;DHT22;24981;48.086;-1.686;2022-07-29T11:47:59;28.90;78.80
39277;DHT22;24981;48.086;-1.686;2022-07-29T11:50:30;28.70;79.40
39277;DHT22;24981;48.086;-1.686;2022-07-29T11:52:58;28.30;80.70
39277;DHT22;24981;48.086;-1.686;2022-07-29T11:55:27;28.70;81.10
39277;DHT22;24981;48.086;-1.686;2022-07-29T11:57:56;28.80;80.40
39277;DHT22;24981;48.086;-1.686;2022-07-29T12:00:28;28.70;79.90
39277;DHT22;24981;48.086;-1.686;2022-07-29T12:02:58;28.70;79.80
39277;DHT22;24981;48.086;-1.686;2022-07-29T12:05:41;28.60;80.10
39277;DHT22;24981;48.086;-1.686;2022-07-29T12:08:13;29.10;80.60
39277;DHT22;24981;48.086;-1.686;2022-07-29T12:10:43;29.10;79.20
39277;DHT22;24981;48.086;-1.686;2022-07-29T12:13:12;29.40;79.00
39277;DHT22;24981;48.086;-1.686;2022-07-29T12:15:41;29.20;77.50
39277;DHT22;24981;48.086;-1.686;2022-07-29T12:18:11;29.10;77.90
39277;DHT22;24981;48.086;-1.686;2022-07-29T12:20:38;28.90;78.20
39277;DHT22;24981;48.086;-1.686;2022-07-29T12:23:07;29.20;78.40
39277;DHT22;24981;48.086;-1.686;2022-07-29T12:25:35;29.40;78.20
39277;DHT22;24981;48.086;-1.686;2022-07-29T12:28:06;29.50;77.70
39277;DHT22;24981;48.086;-1.686;2022-07-29T12:30:38;29.80;76.30
39277;DHT22;24981;48.086;-1.686;2022-07-29T12:33:21;29.90;75.00
39277;DHT22;24981;48.086;-1.686;2022-07-29T12:35:50;30.30;74.50
39277;DHT22;24981;48.086;-1.686;2022-07-29T12:38:19;30.90;74.30
39277;DHT22;24981;48.086;-1.686;2022-07-29T12:40:48;31.30;72.50
39277;DHT22;24981;48.086;-1.686;2022-07-29T12:43:20;31.90;69.50
39277;DHT22;24981;48.086;-1.686;2022-07-29T12:45:49;32.10;68.40
39277;DHT22;24981;48.086;-1.686;2022-07-29T12:48:18;32.20;67.30
39277;DHT22;24981;48.086;-1.686;2022-07-29T12:51:01;32.20;64.80
39277;DHT22;24981;48.086;-1.686;2022-07-29T12:53:29;32.40;64.60
39277;DHT22;24981;48.086;-1.686;2022-07-29T12:55:58;32.60;64.10
39277;DHT22;24981;48.086;-1.686;2022-07-29T12:58:32;32.70;63.70
39277;DHT22;24981;48.086;-1.686;2022-07-29T13:01:05;33.00;62.80
39277;DHT22;24981;48.086;-1.686;2022-07-29T13:03:50;33.20;61.60
39277;DHT22;24981;48.086;-1.686;2022-07-29T13:06:34;32.90;61.50
39277;DHT22;24981;48.086;-1.686;2022-07-29T13:09:06;32.70;61.20
39277;DHT22;24981;48.086;-1.686;2022-07-29T13:11:35;33.10;61.10
39277;DHT22;24981;48.086;-1.686;2022-07-29T13:14:06;33.30;60.30
39277;DHT22;24981;48.086;-1.686;2022-07-29T13:16:34;32.90;59.10
39277;DHT22;24981;48.086;-1.686;2022-07-29T13:19:10;32.60;59.50
39277;DHT22;24981;48.086;-1.686;2022-07-29T13:21:38;31.80;60.00
39277;DHT22;24981;48.086;-1.686;2022-07-29T13:24:07;31.20;61.20
39277;DHT22;24981;48.086;-1.686;2022-07-29T13:26:36;30.70;63.20
39277;DHT22;24981;48.086;-1.686;2022-07-29T13:29:07;30.40;63.80
39277;DHT22;24981;48.086;-1.686;2022-07-29T13:31:35;30.20;65.60
39277;DHT22;24981;48.086;-1.686;2022-07-29T13:34:03;30.10;66.60
39277;DHT22;24981;48.086;-1.686;2022-07-29T13:36:30;30.30;66.70
39277;DHT22;24981;48.086;-1.686;2022-07-29T13:38:58;30.70;66.60
39277;DHT22;24981;48.086;-1.686;2022-07-29T13:41:27;30.90;65.40
39277;DHT22;24981;48.086;-1.686;2022-07-29T13:43:54;31.90;63.20
39277;DHT22;24981;48.086;-1.686;2022-07-29T13:46:23;34.90;58.50
39277;DHT22;24981;48.086;-1.686;2022-07-29T13:48:50;35.40;57.20
39277;DHT22;24981;48.086;-1.686;2022-07-29T13:51:18;37.20;54.50
39277;DHT22;24981;48.086;-1.686;2022-07-29T13:53:45;40.40;50.80
39277;DHT22;24981;48.086;-1.686;2022-07-29T13:56:12;40.40;47.00
39277;DHT22;24981;48.086;-1.686;2022-07-29T13:58:39;39.10;47.30
39277;DHT22;24981;48.086;-1.686;2022-07-29T14:01:07;39.30;47.30
39277;DHT22;24981;48.086;-1.686;2022-07-29T14:03:36;38.80;46.40
39277;DHT22;24981;48.086;-1.686;2022-07-29T14:06:07;37.70;47.20
39277;DHT22;24981;48.086;-1.686;2022-07-29T14:08:34;37.50;48.00
39277;DHT22;24981;48.086;-1.686;2022-07-29T14:11:02;38.00;47.30
39277;DHT22;24981;48.086;-1.686;2022-07-29T14:13:29;37.90;47.20
39277;DHT22;24981;48.086;-1.686;2022-07-29T14:15:57;37.90;47.20
39277;DHT22;24981;48.086;-1.686;2022-07-29T14:18:24;36.90;47.80
39277;DHT22;24981;48.086;-1.686;2022-07-29T14:20:53;36.50;47.80
39277;DHT22;24981;48.086;-1.686;2022-07-29T14:23:20;36.00;48.50
39277;DHT22;24981;48.086;-1.686;2022-07-29T14:25:48;35.40;48.80
39277;DHT22;24981;48.086;-1.686;2022-07-29T14:28:15;34.90;49.90
39277;DHT22;24981;48.086;-1.686;2022-07-29T14:30:42;35.00;50.20
39277;DHT22;24981;48.086;-1.686;2022-07-29T14:33:10;37.00;48.50
39277;DHT22;24981;48.086;-1.686;2022-07-29T14:35:37;37.90;46.50
39277;DHT22;24981;48.086;-1.686;2022-07-29T14:38:06;40.30;44.80
39277;DHT22;24981;48.086;-1.686;2022-07-29T14:40:33;39.30;44.80
39277;DHT22;24981;48.086;-1.686;2022-07-29T14:43:01;38.50;45.10
39277;DHT22;24981;48.086;-1.686;2022-07-29T14:45:28;37.00;46.20
39277;DHT22;24981;48.086;-1.686;2022-07-29T14:47:55;36.00;47.80
39277;DHT22;24981;48.086;-1.686;2022-07-29T14:50:23;35.50;48.70
39277;DHT22;24981;48.086;-1.686;2022-07-29T14:52:52;34.90;49.40
39277;DHT22;24981;48.086;-1.686;2022-07-29T14:55:21;34.40;50.50
39277;DHT22;24981;48.086;-1.686;2022-07-29T14:57:48;34.00;50.80
39277;DHT22;24981;48.086;-1.686;2022-07-29T15:00:17;33.80;51.10
39277;DHT22;24981;48.086;-1.686;2022-07-29T15:02:44;33.60;51.60
39277;DHT22;24981;48.086;-1.686;2022-07-29T15:05:12;33.20;51.70
39277;DHT22;24981;48.086;-1.686;2022-07-29T15:07:39;33.10;52.30
39277;DHT22;24981;48.086;-1.686;2022-07-29T15:10:06;33.00;52.30
39277;DHT22;24981;48.086;-1.686;2022-07-29T15:12:35;32.60;52.90
39277;DHT22;24981;48.086;-1.686;2022-07-29T15:15:03;32.60;53.20
39277;DHT22;24981;48.086;-1.686;2022-07-29T15:17:30;32.30;53.40
39277;DHT22;24981;48.086;-1.686;2022-07-29T15:19:58;31.90;54.20
39277;DHT22;24981;48.086;-1.686;2022-07-29T15:22:25;32.00;54.30
39277;DHT22;24981;48.086;-1.686;2022-07-29T15:24:52;32.10;54.00
39277;DHT22;24981;48.086;-1.686;2022-07-29T15:27:20;32.30;54.00
39277;DHT22;24981;48.086;-1.686;2022-07-29T15:29:48;32.00;54.00
39277;DHT22;24981;48.086;-1.686;2022-07-29T15:32:16;32.10;54.10
39277;DHT22;24981;48.086;-1.686;2022-07-29T15:34:43;32.10;53.90
39277;DHT22;24981;48.086;-1.686;2022-07-29T15:37:10;32.30;54.20
39277;DHT22;24981;48.086;-1.686;2022-07-29T15:39:38;32.80;54.20
39277;DHT22;24981;48.086;-1.686;2022-07-29T15:42:05;33.10;53.10
39277;DHT22;24981;48.086;-1.686;2022-07-29T15:44:34;33.20;52.30
39277;DHT22;24981;48.086;-1.686;2022-07-29T15:47:02;33.40;52.60